Time;durP1;ratioP1;P1;durP2;ratioP2;P2;SDS_P1;SDS_P2;PMS_P1;PMS_P2;Temp;Humidity;BMP_temperature;BMP_pressure;BME280_temperature;BME280_humidity;BME280_pressure;Samples;Min_cycle;Max_cycle;Signal;HPM_P1;HPM_P2
2022/10/09 00:01:30;;;;;;;7.72;3.83;;;11.10;99.90;;;;;;5035343;28;20037;-67
2022/10/09 00:03:57;;;;;;;7.82;3.90;;;11.10;99.90;;;;;;5035036;28;20061;-67
2022/10/09 00:06:25;;;;;;;7.03;3.75;;;11.10;99.90;;;;;;5035287;28;20116;-67
2022/10/09 00:08:51;;;;;;;7.90;3.70;;;11.10;99.90;;;;;;5035747;28;20064;-67
2022/10/09 00:11:20;;;;;;;6.50;3.75;;;11.10;99.90;;;;;;5035045;28;20041;-67
2022/10/09 00:13:47;;;;;;;6.93;3.90;;;11.10;99.90;;;;;;5033628;28;20485;-68
2022/10/09 00:16:14;;;;;;;8.93;4.15;;;11.10;99.90;;;;;;5035097;28;20026;-67
2022/10/09 00:18:40;;;;;;;7.82;4.43;;;11.10;99.90;;;;;;5035051;28;20036;-67
2022/10/09 00:21:18;;;;;;;7.35;3.75;;;11.10;99.90;;;;;;5034782;28;20037;-67
2022/10/09 00:23:45;;;;;;;9.18;4.07;;;11.00;99.90;;;;;;5034977;28;20395;-67
2022/10/09 00:26:11;;;;;;;6.85;3.90;;;11.00;99.90;;;;;;5034909;28;20025;-68
2022/10/09 00:28:37;;;;;;;7.43;4.30;;;11.00;99.90;;;;;;5035356;28;20486;-67
2022/10/09 00:31:05;;;;;;;8.48;4.72;;;11.00;99.90;;;;;;5035055;28;20044;-67
2022/10/09 00:33:30;;;;;;;7.00;3.63;;;11.00;99.90;;;;;;5034688;28;20021;-67
2022/10/09 00:35:56;;;;;;;6.80;3.70;;;11.00;99.90;;;;;;5034468;28;20107;-67
2022/10/09 00:38:22;;;;;;;8.90;4.28;;;11.00;99.90;;;;;;5034583;28;20467;-67
2022/10/09 00:40:47;;;;;;;9.40;4.38;;;11.00;99.90;;;;;;5034911;28;20030;-67
2022/10/09 00:43:36;;;;;;;6.28;3.50;;;11.00;99.90;;;;;;5033454;28;20044;-67
2022/10/09 00:46:02;;;;;;;5.88;4.07;;;10.90;99.90;;;;;;5034813;28;20079;-67
2022/10/09 00:48:28;;;;;;;7.03;4.07;;;10.90;99.90;;;;;;5034474;28;20033;-67
2022/10/09 00:50:57;;;;;;;9.00;4.15;;;10.90;99.90;;;;;;5034073;28;20546;-67
2022/10/09 00:53:27;;;;;;;7.20;4.20;;;10.90;99.90;;;;;;5034352;28;20304;-67
2022/10/09 00:55:53;;;;;;;5.97;3.70;;;10.90;99.90;;;;;;5034666;28;20441;-67
2022/10/09 00:58:20;;;;;;;5.70;3.00;;;10.80;99.90;;;;;;5034544;28;20060;-67
2022/10/09 01:00:46;;;;;;;5.45;3.38;;;10.80;99.90;;;;;;5034544;28;20485;-67
2022/10/09 01:03:12;;;;;;;5.20;3.25;;;10.80;99.90;;;;;;5032829;28;20021;-67
2022/10/09 01:06:00;;;;;;;5.30;3.58;;;10.90;99.90;;;;;;5052039;28;20033;-67
2022/10/09 01:08:58;;;;;;;6.25;4.20;;;10.90;99.90;;;;;;5053476;28;20400;-67
2022/10/09 01:11:38;;;;;;;5.15;3.70;;;11.00;99.90;;;;;;5006379;28;20033;-67
2022/10/09 01:14:11;;;;;;;7.13;3.63;;;10.90;99.90;;;;;;5033367;28;20021;-67
2022/10/09 01:16:46;;;;;;;7.28;3.30;;;10.90;99.90;;;;;;5034132;28;20025;-67
2022/10/09 01:19:41;;;;;;;5.90;3.30;;;10.90;99.90;;;;;;5033719;28;20028;-67
2022/10/09 01:22:31;;;;;;;7.38;3.20;;;10.90;99.90;;;;;;5033961;28;20045;-68
2022/10/09 01:24:57;;;;;;;6.28;3.28;;;10.90;99.90;;;;;;5033895;28;20440;-67
2022/10/09 01:27:27;;;;;;;6.95;4.18;;;10.90;99.90;;;;;;5032536;28;20022;-67
2022/10/09 01:29:57;;;;;;;5.50;3.47;;;10.90;99.90;;;;;;5033936;28;20113;-67
2022/10/09 01:32:29;;;;;;;8.90;3.78;;;10.90;99.90;;;;;;5034060;28;20384;-67
2022/10/09 01:34:56;;;;;;;5.88;3.47;;;10.90;99.90;;;;;;5033581;28;20017;-67
2022/10/09 01:37:22;;;;;;;5.78;3.70;;;10.80;99.90;;;;;;5033413;28;20048;-68
2022/10/09 01:39:50;;;;;;;11.20;3.92;;;10.80;99.90;;;;;;5033497;28;20473;-67
2022/10/09 01:42:18;;;;;;;11.07;4.30;;;10.80;99.90;;;;;;5033441;28;20025;-67
2022/10/09 01:44:44;;;;;;;8.30;4.13;;;10.80;99.90;;;;;;5033463;28;20026;-67
2022/10/09 01:47:15;;;;;;;5.80;3.60;;;10.70;99.90;;;;;;5033439;28;20036;-67
2022/10/09 01:49:55;;;;;;;5.50;3.47;;;10.70;99.90;;;;;;5033200;28;20092;-67
2022/10/09 01:52:26;;;;;;;9.35;3.85;;;10.70;99.90;;;;;;5033250;28;20036;-67
2022/10/09 01:55:18;;;;;;;5.15;3.45;;;10.70;99.90;;;;;;5033347;28;20080;-67
2022/10/09 01:57:47;;;;;;;6.25;3.38;;;10.80;99.90;;;;;;5033586;28;20028;-67
2022/10/09 02:00:13;;;;;;;6.22;3.60;;;10.70;99.90;;;;;;5033185;28;20017;-67
2022/10/09 02:02:40;;;;;;;6.85;3.40;;;10.70;99.90;;;;;;5033424;28;20028;-67
2022/10/09 02:05:12;;;;;;;6.07;3.33;;;10.70;99.90;;;;;;5032975;28;20032;-67
2022/10/09 02:07:38;;;;;;;6.65;3.33;;;10.70;99.90;;;;;;5033228;28;20037;-67
2022/10/09 02:10:05;;;;;;;6.93;3.10;;;10.70;99.90;;;;;;5033129;28;20358;-67
2022/10/09 02:12:37;;;;;;;7.20;3.58;;;10.70;99.90;;;;;;5033163;28;20040;-67
2022/10/09 02:15:03;;;;;;;5.63;3.67;;;10.70;99.90;;;;;;5033158;28;20021;-67
2022/10/09 02:17:33;;;;;;;6.25;3.20;;;10.70;99.90;;;;;;5033051;28;20080;-67
2022/10/09 02:20:13;;;;;;;7.60;3.50;;;10.70;99.90;;;;;;5033134;28;20022;-67
2022/10/09 02:22:39;;;;;;;6.03;3.38;;;10.60;99.90;;;;;;5032991;28;20040;-67
2022/10/09 02:25:06;;;;;;;4.55;2.67;;;10.60;99.90;;;;;;5032156;28;20108;-67
2022/10/09 02:27:33;;;;;;;4.68;3.08;;;10.70;99.90;;;;;;5032332;28;20033;-67
2022/10/09 02:29:59;;;;;;;7.43;3.63;;;10.70;99.90;;;;;;5032938;28;20036;-67
2022/10/09 02:32:25;;;;;;;6.25;3.60;;;10.70;99.90;;;;;;5032834;28;20048;-68
2022/10/09 02:34:51;;;;;;;6.47;3.33;;;10.80;99.90;;;;;;5032973;28;20029;-68
2022/10/09 02:37:18;;;;;;;4.35;3.38;;;10.80;99.90;;;;;;5032783;28;20040;-68
2022/10/09 02:39:44;;;;;;;4.65;3.15;;;10.80;99.90;;;;;;5037130;28;20377;-67
2022/10/09 02:42:09;;;;;;;6.05;3.80;;;10.80;99.90;;;;;;5035546;28;20112;-67
2022/10/09 02:44:35;;;;;;;5.75;3.30;;;10.80;99.90;;;;;;5036837;28;20029;-68
2022/10/09 02:47:01;;;;;;;6.50;3.58;;;10.70;99.90;;;;;;5037065;28;20520;-67
2022/10/09 02:49:26;;;;;;;7.18;3.47;;;10.70;99.90;;;;;;5035278;28;20033;-67
2022/10/09 02:51:52;;;;;;;10.50;3.40;;;10.70;99.90;;;;;;5037065;28;20038;-67
2022/10/09 02:54:18;;;;;;;4.93;3.22;;;10.70;99.90;;;;;;5036875;28;20461;-67
2022/10/09 02:56:44;;;;;;;5.35;3.33;;;10.70;99.90;;;;;;5036629;28;20032;-67
2022/10/09 02:59:09;;;;;;;6.10;3.05;;;10.70;99.90;;;;;;5035198;28;20025;-67
2022/10/09 03:01:35;;;;;;;5.72;3.17;;;10.70;99.90;;;;;;5035213;28;20496;-67
2022/10/09 03:04:01;;;;;;;5.95;3.40;;;10.70;99.90;;;;;;5035090;28;20026;-67
2022/10/09 03:06:28;;;;;;;4.72;3.00;;;10.70;99.90;;;;;;5036185;28;20494;-67
2022/10/09 03:08:54;;;;;;;6.28;3.35;;;10.70;99.90;;;;;;5036378;28;20033;-67
2022/10/09 03:11:22;;;;;;;5.95;2.97;;;10.70;99.90;;;;;;5036732;28;20052;-67
2022/10/09 03:13:48;;;;;;;6.15;3.30;;;10.70;99.90;;;;;;5036419;28;20465;-67
2022/10/09 03:16:19;;;;;;;4.15;2.90;;;10.70;99.90;;;;;;5036191;28;20113;-67
2022/10/09 03:18:46;;;;;;;3.83;2.90;;;10.70;99.90;;;;;;5036504;28;20024;-67
2022/10/09 03:21:14;;;;;;;4.38;2.78;;;10.80;99.90;;;;;;5035904;28;20037;-67
2022/10/09 03:23:40;;;;;;;5.22;3.20;;;10.80;99.90;;;;;;5036277;28;20053;-67
2022/10/09 03:26:09;;;;;;;4.15;3.00;;;10.80;99.90;;;;;;5036061;28;20030;-68
2022/10/09 03:28:36;;;;;;;4.22;3.00;;;10.80;99.90;;;;;;5036057;28;20026;-68
2022/10/09 03:31:02;;;;;;;5.22;2.85;;;10.80;99.90;;;;;;5035835;28;20436;-68
2022/10/09 03:33:27;;;;;;;5.93;3.15;;;10.80;99.90;;;;;;5035795;28;20056;-67
2022/10/09 03:35:53;;;;;;;5.85;3.10;;;10.80;99.90;;;;;;5035813;28;20025;-67
2022/10/09 03:38:19;;;;;;;7.35;4.03;;;10.80;99.90;;;;;;5035802;28;20560;-68
2022/10/09 03:40:44;;;;;;;5.30;3.30;;;10.80;99.90;;;;;;5036009;28;20461;-68
2022/10/09 03:43:10;;;;;;;5.78;3.55;;;10.80;99.90;;;;;;5035877;28;20470;-68
2022/10/09 03:45:40;;;;;;;4.75;3.42;;;10.90;99.90;;;;;;5035641;28;20091;-68
2022/10/09 03:48:06;;;;;;;4.93;3.08;;;10.80;99.90;;;;;;5034167;28;20056;-68
2022/10/09 03:50:32;;;;;;;5.35;3.35;;;10.80;99.90;;;;;;5035036;28;20076;-68
2022/10/09 03:52:58;;;;;;;5.32;3.13;;;10.80;99.90;;;;;;5035626;28;20045;-68
2022/10/09 03:55:24;;;;;;;4.00;3.00;;;10.80;99.90;;;;;;5035487;28;20033;-68
2022/10/09 03:57:49;;;;;;;7.38;3.13;;;10.80;99.90;;;;;;5035669;28;20041;-68
2022/10/09 04:00:15;;;;;;;5.78;3.70;;;10.90;99.90;;;;;;5035614;28;20104;-68
2022/10/09 04:02:41;;;;;;;5.85;3.90;;;10.90;99.90;;;;;;5035684;28;20520;-68
2022/10/09 04:05:07;;;;;;;5.60;3.65;;;10.80;99.90;;;;;;5035130;28;20037;-68
2022/10/09 04:07:33;;;;;;;6.07;3.25;;;10.80;99.90;;;;;;5035557;28;20025;-67
2022/10/09 04:09:59;;;;;;;6.25;3.47;;;10.80;99.90;;;;;;5035194;28;20460;-67
2022/10/09 04:12:25;;;;;;;6.97;4.20;;;10.80;99.90;;;;;;5035561;28;20057;-67
2022/10/09 04:14:51;;;;;;;8.07;3.25;;;10.90;99.90;;;;;;5035388;28;20057;-68
2022/10/09 04:17:16;;;;;;;6.15;3.00;;;10.80;99.90;;;;;;5035346;28;20044;-68
2022/10/09 04:19:42;;;;;;;6.32;3.90;;;10.80;99.90;;;;;;5034846;28;20025;-68
2022/10/09 04:22:08;;;;;;;10.13;5.53;;;10.80;99.90;;;;;;5035168;28;20029;-68
2022/10/09 04:24:33;;;;;;;13.15;8.32;;;10.80;99.90;;;;;;5034958;28;20037;-68
2022/10/09 04:26:59;;;;;;;18.95;8.52;;;10.80;99.90;;;;;;5034881;28;20033;-68
2022/10/09 04:29:24;;;;;;;17.48;9.45;;;10.80;99.90;;;;;;5035175;28;20030;-68
2022/10/09 04:31:50;;;;;;;17.10;9.27;;;10.70;99.90;;;;;;5034652;28;20021;-68
2022/10/09 04:34:16;;;;;;;14.05;7.50;;;10.70;99.90;;;;;;5035036;28;20088;-68
2022/10/09 04:36:41;;;;;;;12.63;6.53;;;10.70;99.90;;;;;;5033793;28;20120;-69
2022/10/09 04:39:07;;;;;;;15.93;10.45;;;10.70;99.90;;;;;;5034938;28;20034;-69
2022/10/09 04:41:33;;;;;;;14.30;9.48;;;10.70;99.90;;;;;;5034597;28;20040;-69
2022/10/09 04:43:59;;;;;;;13.20;8.75;;;10.70;99.90;;;;;;5034560;28;20056;-69
2022/10/09 04:46:24;;;;;;;8.25;5.20;;;10.70;99.90;;;;;;5033374;28;20021;-69
2022/10/09 04:48:50;;;;;;;8.77;4.72;;;10.60;99.90;;;;;;5034492;28;20397;-69
2022/10/09 04:51:17;;;;;;;6.97;4.38;;;10.70;99.90;;;;;;5034189;28;20108;-69
2022/10/09 04:53:43;;;;;;;9.48;5.03;;;10.70;99.90;;;;;;5034305;28;20030;-69
2022/10/09 04:56:12;;;;;;;12.45;5.38;;;10.70;99.90;;;;;;5034606;28;20034;-69
2022/10/09 04:58:41;;;;;;;6.50;4.43;;;10.70;99.90;;;;;;5034239;28;20028;-68
2022/10/09 05:01:10;;;;;;;8.75;4.45;;;10.70;99.90;;;;;;5033352;28;20493;-69
2022/10/09 05:03:36;;;;;;;6.97;4.57;;;10.70;99.90;;;;;;5034218;28;20041;-69
2022/10/09 05:06:04;;;;;;;13.05;4.95;;;10.70;99.90;;;;;;5033960;28;20424;-69
2022/10/09 05:08:30;;;;;;;7.97;4.60;;;10.60;99.90;;;;;;5034042;28;20029;-69
2022/10/09 05:11:07;;;;;;;9.50;4.40;;;10.70;99.90;;;;;;5034454;28;20087;-68
2022/10/09 05:13:36;;;;;;;9.52;5.25;;;10.70;99.90;;;;;;5034510;28;20021;-69
2022/10/09 05:16:08;;;;;;;9.00;5.05;;;10.60;99.90;;;;;;5034240;28;20025;-69
2022/10/09 05:18:34;;;;;;;5.90;4.63;;;10.60;99.90;;;;;;5034179;28;20022;-69
2022/10/09 05:21:04;;;;;;;6.68;4.03;;;10.60;99.90;;;;;;5033641;28;20109;-69
2022/10/09 05:23:31;;;;;;;5.97;4.25;;;10.60;99.90;;;;;;5032468;28;20048;-69
2022/10/09 05:25:59;;;;;;;6.55;3.70;;;10.60;99.90;;;;;;5034070;28;20037;-69
2022/10/09 05:28:25;;;;;;;8.93;5.40;;;10.60;99.90;;;;;;5033766;28;20060;-68
2022/10/09 05:30:51;;;;;;;9.02;4.93;;;10.60;99.90;;;;;;5033630;28;20478;-69
2022/10/09 05:33:17;;;;;;;7.07;4.88;;;10.60;99.90;;;;;;5033820;28;20052;-69
2022/10/09 05:35:50;;;;;;;7.55;5.07;;;10.60;99.90;;;;;;5033721;28;20473;-68
2022/10/09 05:38:16;;;;;;;10.55;5.05;;;10.60;99.90;;;;;;5033583;28;20036;-68
2022/10/09 05:40:56;;;;;;;6.75;4.38;;;10.60;99.90;;;;;;5033502;28;20029;-69
2022/10/09 05:43:23;;;;;;;8.40;5.18;;;10.50;99.90;;;;;;5033472;28;20075;-68
2022/10/09 05:45:50;;;;;;;7.20;4.00;;;10.60;99.90;;;;;;5033996;28;20187;-69
2022/10/09 05:48:16;;;;;;;7.07;4.50;;;10.60;99.90;;;;;;5032253;28;20036;-69
2022/10/09 05:50:41;;;;;;;7.47;4.35;;;10.60;99.90;;;;;;5033272;28;20100;-68
2022/10/09 05:53:07;;;;;;;10.25;4.40;;;10.60;99.90;;;;;;5033356;28;20485;-69
2022/10/09 05:55:33;;;;;;;6.68;4.72;;;10.60;99.90;;;;;;5033352;28;20447;-68
2022/10/09 05:57:58;;;;;;;11.82;5.15;;;10.60;99.90;;;;;;5033342;28;20037;-69
2022/10/09 06:00:25;;;;;;;6.15;4.72;;;10.60;99.90;;;;;;5033487;28;20409;-69
2022/10/09 06:02:51;;;;;;;8.50;4.95;;;10.60;99.90;;;;;;5033167;28;20026;-69
2022/10/09 06:05:16;;;;;;;8.68;6.03;;;10.60;99.90;;;;;;5033186;28;20037;-69
2022/10/09 06:07:42;;;;;;;9.02;5.82;;;10.70;99.90;;;;;;5033193;28;20030;-68
2022/10/09 06:10:08;;;;;;;9.57;5.85;;;10.60;99.90;;;;;;5033094;28;20037;-69
2022/10/09 06:12:34;;;;;;;9.32;5.40;;;10.60;99.90;;;;;;5032953;28;20478;-69
2022/10/09 06:15:00;;;;;;;8.95;5.30;;;10.60;99.90;;;;;;5032011;28;20095;-69
2022/10/09 06:17:25;;;;;;;8.15;5.47;;;10.60;99.90;;;;;;5033075;28;20033;-69
2022/10/09 06:19:51;;;;;;;9.07;5.78;;;10.60;99.90;;;;;;5033365;28;20033;-69
2022/10/09 06:22:17;;;;;;;7.45;4.85;;;10.70;99.90;;;;;;5032737;28;20033;-68
2022/10/09 06:24:42;;;;;;;7.07;5.28;;;10.70;99.90;;;;;;5033004;28;20021;-69
2022/10/09 06:27:09;;;;;;;8.90;4.78;;;10.70;99.90;;;;;;5033003;28;20080;-69
2022/10/09 06:29:35;;;;;;;7.97;5.70;;;10.70;99.90;;;;;;5032985;28;20400;-69
2022/10/09 06:32:01;;;;;;;9.27;5.53;;;10.70;99.90;;;;;;5033104;28;20033;-69
2022/10/09 06:34:26;;;;;;;6.78;4.80;;;10.80;99.90;;;;;;5033237;28;20025;-69
2022/10/09 06:36:52;;;;;;;9.63;5.00;;;10.80;99.90;;;;;;5032544;28;20037;-69
2022/10/09 06:39:18;;;;;;;7.68;4.85;;;10.80;99.90;;;;;;5032050;28;20026;-69
2022/10/09 06:41:43;;;;;;;8.88;5.25;;;10.80;99.90;;;;;;5032889;28;20029;-69
2022/10/09 06:44:11;;;;;;;5.45;3.95;;;10.80;99.90;;;;;;5033839;28;20092;-68
2022/10/09 06:46:39;;;;;;;7.97;5.03;;;10.90;99.90;;;;;;5032807;28;20033;-69
2022/10/09 06:49:06;;;;;;;9.07;5.70;;;10.80;99.90;;;;;;5032859;28;20030;-69
2022/10/09 06:51:33;;;;;;;9.73;5.10;;;10.90;99.90;;;;;;5032544;28;20021;-68
2022/10/09 06:54:02;;;;;;;7.00;4.70;;;10.90;99.90;;;;;;5032763;28;20048;-69
2022/10/09 06:56:30;;;;;;;7.60;5.75;;;10.90;99.90;;;;;;5032780;28;20498;-68
2022/10/09 06:58:59;;;;;;;7.82;5.95;;;11.00;99.90;;;;;;5032673;28;20105;-69
2022/10/09 07:01:30;;;;;;;9.82;5.72;;;11.00;99.90;;;;;;5032961;28;20028;-69
2022/10/09 07:04:02;;;;;;;9.27;5.80;;;11.00;99.90;;;;;;5032721;28;20029;-69
2022/10/09 07:06:30;;;;;;;6.78;4.35;;;11.00;99.90;;;;;;5032496;28;20072;-68
2022/10/09 07:08:58;;;;;;;10.63;5.18;;;11.00;99.90;;;;;;5032914;28;20064;-69
2022/10/09 07:11:30;;;;;;;10.65;5.80;;;11.00;99.90;;;;;;5032503;28;20078;-68
2022/10/09 07:13:58;;;;;;;10.50;5.68;;;11.00;99.90;;;;;;5032597;28;20037;-68
2022/10/09 07:16:26;;;;;;;10.55;6.00;;;11.10;99.90;;;;;;5032760;28;20056;-68
2022/10/09 07:18:52;;;;;;;8.90;5.53;;;11.10;99.90;;;;;;5032523;28;20032;-69
2022/10/09 07:21:18;;;;;;;9.38;5.70;;;11.10;99.90;;;;;;5031146;28;20026;-69
2022/10/09 07:23:44;;;;;;;6.97;4.60;;;11.20;99.90;;;;;;5033252;28;20450;-69
2022/10/09 07:26:16;;;;;;;6.15;4.18;;;11.20;99.90;;;;;;5034783;28;20065;-69
2022/10/09 07:28:42;;;;;;;7.82;4.72;;;11.30;99.90;;;;;;5036057;28;20026;-69
2022/10/09 07:31:08;;;;;;;6.57;4.35;;;11.40;99.90;;;;;;5035919;28;20059;-69
2022/10/09 07:33:34;;;;;;;7.57;4.68;;;11.40;99.90;;;;;;5035888;28;20026;-69
2022/10/09 07:36:01;;;;;;;8.65;6.15;;;11.50;99.90;;;;;;5035769;28;20466;-69
2022/10/09 07:38:27;;;;;;;13.77;6.95;;;11.60;99.90;;;;;;5036530;28;20124;-69
2022/10/09 07:40:54;;;;;;;11.82;6.65;;;11.60;99.90;;;;;;5035743;28;20055;-69
2022/10/09 07:43:20;;;;;;;8.45;5.55;;;11.70;99.90;;;;;;5035795;28;20025;-69
2022/10/09 07:45:46;;;;;;;11.30;5.38;;;11.70;99.90;;;;;;5035915;28;20466;-69
2022/10/09 07:48:12;;;;;;;8.10;5.53;;;11.80;99.90;;;;;;5035681;28;20030;-69
2022/10/09 07:50:38;;;;;;;7.15;4.40;;;11.80;99.90;;;;;;5034046;28;20017;-68
2022/10/09 07:53:04;;;;;;;10.05;4.85;;;11.90;99.90;;;;;;5035440;28;20401;-69
2022/10/09 07:55:30;;;;;;;10.93;5.78;;;11.90;99.90;;;;;;5035543;28;20021;-69
2022/10/09 07:57:55;;;;;;;8.50;4.95;;;12.00;99.90;;;;;;5035974;28;20489;-69
2022/10/09 08:00:21;;;;;;;8.80;5.47;;;12.00;99.90;;;;;;5035857;28;20045;-69
2022/10/09 08:02:47;;;;;;;6.28;4.60;;;12.00;99.90;;;;;;5035765;28;20133;-69
2022/10/09 08:05:12;;;;;;;5.95;4.00;;;12.10;99.90;;;;;;5035893;28;20083;-69
2022/10/09 08:07:38;;;;;;;8.77;4.53;;;12.10;99.90;;;;;;5035088;28;20060;-68
2022/10/09 08:10:04;;;;;;;7.97;5.25;;;12.10;99.90;;;;;;5035448;28;20076;-68
2022/10/09 08:12:30;;;;;;;5.65;3.80;;;12.10;99.90;;;;;;5034991;28;20029;-69
2022/10/09 08:14:56;;;;;;;6.20;4.40;;;12.20;99.90;;;;;;5035733;28;20108;-69
2022/10/09 08:17:21;;;;;;;5.93;3.72;;;12.20;99.90;;;;;;5035088;28;20531;-69
2022/10/09 08:19:47;;;;;;;6.22;3.90;;;12.20;99.90;;;;;;5035117;28;20388;-69
2022/10/09 08:22:13;;;;;;;7.97;4.28;;;12.20;99.90;;;;;;5035038;28;20076;-69
2022/10/09 08:24:38;;;;;;;6.35;3.72;;;12.20;99.90;;;;;;5035431;28;20036;-69
2022/10/09 08:27:05;;;;;;;6.88;4.40;;;12.30;99.90;;;;;;5035112;28;20037;-69
2022/10/09 08:29:32;;;;;;;6.82;4.03;;;12.30;99.90;;;;;;5035480;28;20028;-69
2022/10/09 08:31:57;;;;;;;7.45;4.45;;;12.40;99.90;;;;;;5034986;28;20080;-69
2022/10/09 08:34:24;;;;;;;10.60;5.65;;;12.40;99.90;;;;;;5035084;28;20025;-69
2022/10/09 08:36:50;;;;;;;13.38;5.60;;;12.40;99.90;;;;;;5034522;28;20060;-69
2022/10/09 08:39:16;;;;;;;16.67;6.85;;;12.40;99.90;;;;;;5035140;28;20047;-69
2022/10/09 08:41:56;;;;;;;13.63;4.88;;;12.40;99.90;;;;;;5034790;28;20113;-69
2022/10/09 08:44:30;;;;;;;10.65;6.05;;;12.50;99.90;;;;;;5035380;28;20162;-69
2022/10/09 08:47:08;;;;;;;10.57;4.70;;;12.50;99.90;;;;;;5034603;28;20028;-67
2022/10/09 08:50:00;;;;;;;5.50;3.67;;;12.50;99.90;;;;;;5033149;28;20033;-67
2022/10/09 08:52:41;;;;;;;7.65;3.65;;;12.60;99.90;;;;;;5034149;28;20029;-67
2022/10/09 08:55:30;;;;;;;8.73;4.35;;;12.70;99.90;;;;;;5034403;28;20021;-67
2022/10/09 08:58:00;;;;;;;8.60;4.93;;;12.80;99.90;;;;;;5034624;28;20108;-67
2022/10/09 09:00:38;;;;;;;6.75;4.15;;;12.90;99.90;;;;;;5034300;28;20038;-67
2022/10/09 09:03:49;;;;;;;8.18;3.85;;;12.90;99.90;;;;;;5034330;28;20025;-67
2022/10/09 09:06:33;;;;;;;5.18;4.05;;;13.00;99.90;;;;;;5028394;28;20038;-67
2022/10/09 09:09:07;;;;;;;6.63;3.80;;;13.00;99.90;;;;;;5034066;28;20031;-67
2022/10/09 09:11:35;;;;;;;5.50;3.50;;;13.10;99.90;;;;;;5033968;28;20057;-67
2022/10/09 09:14:30;;;;;;;8.32;4.20;;;13.10;99.90;;;;;;5033936;28;20022;-67
2022/10/09 09:17:10;;;;;;;8.75;3.90;;;13.20;99.90;;;;;;5033954;28;20022;-67
2022/10/09 09:19:44;;;;;;;7.47;4.22;;;13.20;99.90;;;;;;5034226;28;20026;-67
2022/10/09 09:22:15;;;;;;;7.30;4.55;;;13.20;99.90;;;;;;5033613;28;20029;-67
2022/10/09 09:24:46;;;;;;;8.65;4.22;;;13.30;99.90;;;;;;5034062;28;20045;-67
2022/10/09 09:27:15;;;;;;;6.70;4.43;;;13.40;99.90;;;;;;5032515;28;20104;-67
2022/10/09 09:29:47;;;;;;;12.73;4.50;;;13.40;99.90;;;;;;5032432;28;20028;-67
2022/10/09 09:32:32;;;;;;;8.50;4.30;;;13.40;99.90;;;;;;5033938;28;20072;-67
2022/10/09 09:35:45;;;;;;;7.40;4.00;;;13.50;99.90;;;;;;5033976;28;20030;-67
2022/10/09 09:38:12;;;;;;;6.97;3.72;;;13.50;99.90;;;;;;5022945;28;20464;-67
2022/10/09 09:40:38;;;;;;;7.30;3.50;;;13.60;99.90;;;;;;5033538;28;20056;-67
2022/10/09 09:43:18;;;;;;;7.18;4.40;;;13.60;99.90;;;;;;5033672;28;20058;-68
2022/10/09 09:45:44;;;;;;;7.32;4.32;;;13.70;99.90;;;;;;5033546;28;20021;-67
2022/10/09 09:48:17;;;;;;;5.53;3.65;;;13.70;99.90;;;;;;5033248;28;20036;-67
2022/10/09 09:50:44;;;;;;;7.57;4.10;;;13.80;99.90;;;;;;5033230;28;20543;-68
2022/10/09 09:53:24;;;;;;;5.60;3.70;;;13.80;99.90;;;;;;5033343;28;20041;-67
2022/10/09 09:55:52;;;;;;;5.90;4.32;;;13.90;99.90;;;;;;5033298;28;20021;-68
2022/10/09 09:58:19;;;;;;;6.25;4.38;;;13.90;99.90;;;;;;5033583;28;20030;-67
2022/10/09 10:00:56;;;;;;;10.45;6.30;;;14.00;99.90;;;;;;5033361;28;20022;-67
2022/10/09 10:03:23;;;;;;;8.32;5.82;;;14.10;99.90;;;;;;5031926;28;20030;-67
2022/10/09 10:05:49;;;;;;;8.73;5.05;;;14.10;99.90;;;;;;5033028;28;20022;-68
2022/10/09 10:08:26;;;;;;;8.75;5.90;;;14.10;99.90;;;;;;5033208;28;20029;-68
2022/10/09 10:10:58;;;;;;;6.40;4.65;;;14.10;99.90;;;;;;5032994;28;20473;-67
2022/10/09 10:13:44;;;;;;;7.45;4.88;;;14.10;99.90;;;;;;5033120;28;20385;-67
2022/10/09 10:16:28;;;;;;;5.88;4.13;;;14.20;99.90;;;;;;5033662;28;20359;-68
2022/10/09 10:18:56;;;;;;;5.07;3.70;;;14.20;99.90;;;;;;5033667;28;20363;-67
2022/10/09 10:21:22;;;;;;;5.80;3.28;;;14.30;99.90;;;;;;5033089;28;20029;-68
2022/10/09 10:23:55;;;;;;;8.02;3.40;;;14.40;99.90;;;;;;5029469;28;20554;-67
2022/10/09 10:26:24;;;;;;;3.80;2.70;;;14.50;99.90;;;;;;5032948;28;20029;-68
2022/10/09 10:28:56;;;;;;;4.30;2.67;;;14.60;99.90;;;;;;5030331;28;20029;-68
2022/10/09 10:31:52;;;;;;;5.85;3.28;;;14.60;99.90;;;;;;5013157;28;20022;-68
2022/10/09 10:34:46;;;;;;;4.32;2.50;;;14.70;99.90;;;;;;5013541;28;20109;-68
2022/10/09 10:37:12;;;;;;;4.47;2.40;;;14.70;99.90;;;;;;5012229;28;20096;-69
2022/10/09 10:39:48;;;;;;;4.20;2.45;;;14.60;99.90;;;;;;5045021;28;20381;-69
2022/10/09 10:42:21;;;;;;;4.43;2.30;;;14.60;99.90;;;;;;5025695;28;20049;-69
2022/10/09 10:44:55;;;;;;;4.47;2.30;;;14.70;99.90;;;;;;5031636;28;20048;-69
2022/10/09 10:47:24;;;;;;;6.38;3.53;;;14.70;99.90;;;;;;5032893;28;20477;-69
2022/10/09 10:49:50;;;;;;;7.53;5.35;;;14.80;99.90;;;;;;5032805;28;20083;-69
2022/10/09 10:52:37;;;;;;;9.15;5.82;;;14.80;99.90;;;;;;5032521;28;20042;-69
2022/10/09 10:55:18;;;;;;;7.30;4.90;;;14.90;99.90;;;;;;5032792;28;20053;-69
2022/10/09 10:57:50;;;;;;;9.95;4.30;;;14.90;99.90;;;;;;5033102;28;20041;-69
2022/10/09 11:00:16;;;;;;;4.72;2.20;;;14.90;99.90;;;;;;5036403;28;20398;-69
2022/10/09 11:02:51;;;;;;;3.28;2.17;;;15.00;99.90;;;;;;5036455;28;20087;-69
2022/10/09 11:05:25;;;;;;;3.70;2.20;;;15.00;99.90;;;;;;5036741;28;20022;-69
2022/10/09 11:08:26;;;;;;;4.85;2.10;;;15.10;99.90;;;;;;5036148;28;20028;-69
2022/10/09 11:10:54;;;;;;;3.27;2.10;;;15.10;99.90;;;;;;4981985;28;20041;-69
2022/10/09 11:13:27;;;;;;;2.97;1.88;;;15.20;99.90;;;;;;5016966;28;20033;-70
2022/10/09 11:16:04;;;;;;;6.35;3.33;;;15.30;99.90;;;;;;5017963;28;20093;-69
2022/10/09 11:18:47;;;;;;;6.25;2.92;;;15.30;99.90;;;;;;5026943;28;20088;-68
2022/10/09 11:21:44;;;;;;;6.57;3.22;;;15.30;99.90;;;;;;5035888;28;20480;-68
2022/10/09 11:24:35;;;;;;;4.05;2.95;;;15.20;99.90;;;;;;5036022;28;20045;-69
2022/10/09 11:27:01;;;;;;;;;;;15.20;99.90;;;;;;5036511;28;20021;-69
2022/10/09 11:29:38;;;;;;;4.97;3.08;;;15.20;99.90;;;;;;5036017;28;19958;-68
2022/10/09 11:32:18;;;;;;;6.90;3.17;;;15.20;99.90;;;;;;5036093;28;20025;-69
2022/10/09 11:34:51;;;;;;;6.70;3.13;;;15.10;99.90;;;;;;5036202;28;20049;-69
2022/10/09 11:37:22;;;;;;;6.80;3.30;;;15.10;99.90;;;;;;5035303;28;20083;-68
2022/10/09 11:39:48;;;;;;;5.07;3.33;;;15.10;99.90;;;;;;5034933;28;20047;-68
2022/10/09 11:42:19;;;;;;;5.45;3.42;;;15.10;99.90;;;;;;5035665;28;20040;-68
2022/10/09 11:45:01;;;;;;;11.13;4.70;;;15.10;99.90;;;;;;5035762;28;20032;-69
2022/10/09 11:47:53;;;;;;;11.07;5.75;;;15.10;99.90;;;;;;5036303;28;20128;-69
2022/10/09 11:50:43;;;;;;;5.55;3.80;;;15.10;99.90;;;;;;5035983;28;20033;-68
2022/10/09 11:53:15;;;;;;;6.90;3.20;;;15.10;99.90;;;;;;5035341;28;20036;-67
2022/10/09 11:55:41;;;;;;;;;;;15.10;99.90;;;;;;5035819;28;20053;-69
2022/10/09 11:58:19;;;;;;;;;;;15.20;99.90;;;;;;5043264;28;19924;-68
2022/10/09 12:00:46;;;;;;;;;;;15.20;99.90;;;;;;5044419;28;19908;-69
2022/10/09 12:03:32;;;;;;;;;;;15.20;99.90;;;;;;5039399;28;20331;-70
2022/10/09 12:06:16;;;;;;;;;;;15.30;99.90;;;;;;5051344;28;20003;-70
2022/10/09 12:08:52;;;;;;;;;;;15.20;99.90;;;;;;5055966;28;19905;-70
2022/10/09 12:11:18;;;;;;;;;;;15.30;99.90;;;;;;5042650;28;19920;-67
2022/10/09 12:13:46;;;;;;;;;;;15.40;99.90;;;;;;5035522;28;19963;-70
2022/10/09 12:16:47;;;;;;;;;;;15.50;99.90;;;;;;5035584;28;19953;-70
2022/10/09 12:19:32;;;;;;;;;;;15.60;99.90;;;;;;4994063;28;20406;-70
2022/10/09 12:22:01;;;;;;;;;;;15.70;99.90;;;;;;5015348;28;19971;-70
2022/10/09 12:24:29;;;;;;;;;;;15.70;99.90;;;;;;5035769;28;19967;-69
2022/10/09 12:26:58;;;;;;;;;;;15.80;99.90;;;;;;5035346;28;19952;-69
2022/10/09 12:29:26;;;;;;;;;;;15.90;99.90;;;;;;5035620;28;20280;-69
2022/10/09 12:31:55;;;;;;;;;;;16.00;99.90;;;;;;5035100;28;20283;-69
2022/10/09 12:34:25;;;;;;;;;;;16.10;99.90;;;;;;5035221;28;20323;-69
2022/10/09 12:36:51;;;;;;;;;;;16.20;99.90;;;;;;5035041;28;19954;-69
2022/10/09 12:39:20;;;;;;;;;;;16.30;99.90;;;;;;5035483;28;19916;-69
2022/10/09 12:41:47;;;;;;;;;;;16.40;99.90;;;;;;5035041;28;19911;-69
2022/10/09 12:44:16;;;;;;;;;;;16.60;99.90;;;;;;5035275;28;20345;-68
2022/10/09 12:46:42;;;;;;;;;;;16.70;99.90;;;;;;5035010;28;20366;-69
2022/10/09 12:49:15;;;;;;;;;;;16.80;99.90;;;;;;5035028;28;20007;-69
2022/10/09 12:51:48;;;;;;;;;;;16.90;99.90;;;;;;5034708;28;19915;-69
2022/10/09 12:54:14;;;;;;;;;;;16.90;99.90;;;;;;5033533;28;19912;-69
2022/10/09 12:56:39;;;;;;;;;;;16.90;99.90;;;;;;5034771;28;19909;-69
2022/10/09 12:59:05;;;;;;;;;;;16.90;99.90;;;;;;5034695;28;20366;-69
2022/10/09 13:01:32;;;;;;;;;;;17.00;99.90;;;;;;5034697;28;20295;-68
2022/10/09 13:04:03;;;;;;;;;;;17.10;99.90;;;;;;5034810;28;19909;-68
2022/10/09 13:06:33;;;;;;;;;;;17.20;99.90;;;;;;5034655;28;19999;-69
2022/10/09 13:09:00;;;;;;;;;;;17.30;99.90;;;;;;5034530;28;20419;-70